createdAt,value
2019-05-10T00:01:51.737Z,63.86
2019-05-10T00:04:38.143Z,64.16
2019-05-10T00:07:25.230Z,64.16
2019-05-10T00:09:52.984Z,64.85
2019-05-10T00:12:32.357Z,65.25
2019-05-10T00:15:00.939Z,65.54
2019-05-10T00:17:29.381Z,68.29
2019-05-10T00:19:57.631Z,69.97
2019-05-10T00:22:25.928Z,70.98
2019-05-10T00:25:03.759Z,71.63
2019-05-10T00:27:24.839Z,71.41
2019-05-10T00:29:53.319Z,72.17
2019-05-10T00:32:22.066Z,73.06
2019-05-10T00:34:50.825Z,73.51
2019-05-10T00:37:19.309Z,74.53
2019-05-10T00:39:47.834Z,74.77
2019-05-10T00:42:15.995Z,74.75
2019-05-10T00:44:44.257Z,74.72
2019-05-10T00:47:12.900Z,74.87
2019-05-10T00:49:41.497Z,75.24
2019-05-10T00:52:10.082Z,74.09
2019-05-10T00:54:39.016Z,73.72
2019-05-10T00:57:07.182Z,73.32
2019-05-10T00:59:35.446Z,73.46
2019-05-10T01:02:03.572Z,72.67
2019-05-10T01:04:31.962Z,72.51
2019-05-10T01:07:00.401Z,72.36
2019-05-10T01:09:28.547Z,73.87
2019-05-10T01:11:56.695Z,73.45
2019-05-10T01:14:25.150Z,73.51
2019-05-10T01:16:53.341Z,74.64
2019-05-10T01:19:21.856Z,73.90
2019-05-10T01:21:50.029Z,73.44
2019-05-10T01:24:18.162Z,73.48
2019-05-10T01:26:46.708Z,73.35
2019-05-10T01:29:14.862Z,74.69
2019-05-10T01:31:43.383Z,74.67
2019-05-10T01:34:11.615Z,76.32
2019-05-10T01:36:39.743Z,76.25
2019-05-10T01:39:07.920Z,76.62
2019-05-10T01:41:36.372Z,77.18
2019-05-10T01:44:04.544Z,76.83
2019-05-10T01:46:33.117Z,76.91
2019-05-10T01:49:01.947Z,77.48
2019-05-10T01:51:30.108Z,77.30
2019-05-10T01:53:59.032Z,77.53
2019-05-10T01:56:27.225Z,77.61
2019-05-10T01:58:55.993Z,77.65
2019-05-10T02:01:24.474Z,78.00
2019-05-10T02:03:52.914Z,78.81
2019-05-10T02:06:21.652Z,78.95
2019-05-10T02:08:49.820Z,79.03
2019-05-10T02:11:18.064Z,80.90
2019-05-10T02:13:52.555Z,81.97
2019-05-10T02:16:21.084Z,81.63
2019-05-10T02:18:49.320Z,81.89
2019-05-10T02:21:18.469Z,82.68
2019-05-10T02:23:47.156Z,82.84
2019-05-10T02:26:15.313Z,83.09
2019-05-10T02:28:43.428Z,83.52
2019-05-10T02:31:11.768Z,84.45
2019-05-10T02:33:41.297Z,84.35
2019-05-10T02:36:09.828Z,82.46
2019-05-10T02:38:37.985Z,81.34
2019-05-10T02:41:06.210Z,80.72
2019-05-10T02:43:34.859Z,80.89
2019-05-10T02:46:02.959Z,80.56
2019-05-10T02:48:31.397Z,80.59
2019-05-10T02:50:59.841Z,80.57
2019-05-10T02:53:28.521Z,80.32
2019-05-10T02:55:57.424Z,79.47
2019-05-10T02:58:26.229Z,79.36
2019-05-10T03:00:56.767Z,79.19
2019-05-10T03:03:29.817Z,78.75
2019-05-10T03:06:01.848Z,79.03
2019-05-10T03:08:46.870Z,78.97
2019-05-10T03:11:15.917Z,78.85
2019-05-10T03:13:48.544Z,78.20
2019-05-10T03:16:20.813Z,78.16
2019-05-10T03:18:51.100Z,78.51
2019-05-10T03:21:20.986Z,78.17
2019-05-10T03:23:50.149Z,77.24
2019-05-10T03:26:18.615Z,77.63
2019-05-10T03:28:47.025Z,77.30
2019-05-10T03:31:15.296Z,77.63
2019-05-10T03:33:43.606Z,77.94
2019-05-10T03:36:12.277Z,77.95
2019-05-10T03:38:40.951Z,77.91
2019-05-10T03:41:09.097Z,77.98
2019-05-10T03:43:37.812Z,78.10
2019-05-10T03:46:06.036Z,78.11
2019-05-10T03:48:34.902Z,78.37
2019-05-10T03:51:03.303Z,78.38
2019-05-10T03:53:31.416Z,77.92
2019-05-10T03:56:00.128Z,78.12
2019-05-10T03:58:28.241Z,78.41
2019-05-10T04:00:56.362Z,77.78
2019-05-10T04:03:24.564Z,77.71
2019-05-10T04:05:52.752Z,78.29
2019-05-10T04:08:21.134Z,77.45
2019-05-10T04:10:49.346Z,78.34
2019-05-10T04:13:17.493Z,77.49
2019-05-10T04:15:46.039Z,77.97
2019-05-10T04:18:14.252Z,77.82
2019-05-10T04:20:42.883Z,77.30
2019-05-10T04:23:11.805Z,77.07
2019-05-10T04:25:40.569Z,77.02
2019-05-10T04:28:08.907Z,76.69
2019-05-10T04:30:37.059Z,76.75
2019-05-10T04:33:05.416Z,76.24
2019-05-10T04:35:33.909Z,74.93
2019-05-10T04:38:02.185Z,74.42
2019-05-10T04:40:30.718Z,75.17
2019-05-10T04:42:58.898Z,75.66
2019-05-10T04:45:27.137Z,75.20
2019-05-10T04:47:55.315Z,75.10
2019-05-10T04:50:23.534Z,75.23
2019-05-10T04:52:52.119Z,75.04
2019-05-10T04:55:20.272Z,75.77
2019-05-10T04:57:51.090Z,76.09
2019-05-10T05:00:20.245Z,76.22
2019-05-10T05:02:48.477Z,77.07
2019-05-10T05:05:17.516Z,77.86
2019-05-10T05:07:45.726Z,77.84
2019-05-10T05:10:13.862Z,78.20
2019-05-10T05:12:42.102Z,78.02
2019-05-10T05:15:10.590Z,77.86
2019-05-10T05:17:39.045Z,78.49
2019-05-10T05:20:07.318Z,78.99
2019-05-10T05:22:35.767Z,79.50
2019-05-10T05:25:04.313Z,79.22
2019-05-10T05:27:32.914Z,79.36
2019-05-10T05:30:01.099Z,78.55
2019-05-10T05:32:29.266Z,79.29
2019-05-10T05:34:57.750Z,78.66
2019-05-10T05:37:26.000Z,78.68
2019-05-10T05:39:54.690Z,78.46
2019-05-10T05:42:28.031Z,78.52
2019-05-10T05:44:55.149Z,78.92
2019-05-10T05:47:23.778Z,78.74
2019-05-10T05:49:52.217Z,79.15
2019-05-10T05:52:20.380Z,78.78
2019-05-10T05:54:52.826Z,78.52
2019-05-10T05:57:22.222Z,78.89
2019-05-10T05:59:49.572Z,78.99
2019-05-10T06:02:18.075Z,79.11
2019-05-10T06:04:47.672Z,78.79
2019-05-10T06:07:16.753Z,78.83
2019-05-10T06:09:45.202Z,78.66
2019-05-10T06:12:14.267Z,79.37
2019-05-10T06:14:52.413Z,79.58
2019-05-10T06:17:23.639Z,78.86
2019-05-10T06:19:51.118Z,78.78
2019-05-10T06:22:19.254Z,78.77
2019-05-10T06:24:52.445Z,78.99
2019-05-10T06:27:18.217Z,79.38
2019-05-10T06:29:46.502Z,79.19
2019-05-10T06:32:14.794Z,78.87
2019-05-10T06:34:43.273Z,78.47
2019-05-10T06:37:11.968Z,78.70
2019-05-10T06:39:40.217Z,78.26
2019-05-10T06:42:09.765Z,78.06
2019-05-10T06:44:39.732Z,76.96
2019-05-10T06:47:10.028Z,75.36
2019-05-10T06:49:41.722Z,74.04
2019-05-10T06:52:07.996Z,72.90
2019-05-10T06:54:36.182Z,73.22
2019-05-10T06:57:04.419Z,73.72
2019-05-10T06:59:33.195Z,74.43
2019-05-10T07:02:01.305Z,74.33
2019-05-10T07:04:34.317Z,72.41
2019-05-10T07:06:59.723Z,72.50
2019-05-10T07:09:28.080Z,72.80
2019-05-10T07:11:56.696Z,73.04
2019-05-10T07:14:27.113Z,73.21
2019-05-10T07:16:56.556Z,72.14
2019-05-10T07:19:28.763Z,71.40
2019-05-10T07:21:56.150Z,71.90
2019-05-10T07:24:27.025Z,69.18
2019-05-10T07:26:56.524Z,71.47
2019-05-10T07:29:30.158Z,70.71
2019-05-10T07:31:56.110Z,70.98
2019-05-10T07:34:24.765Z,71.07
2019-05-10T07:36:52.913Z,73.01
2019-05-10T07:39:21.275Z,75.06
2019-05-10T07:41:49.474Z,77.79
2019-05-10T07:44:17.971Z,80.23
2019-05-10T07:46:49.711Z,81.85
2019-05-10T07:49:16.286Z,81.16
2019-05-10T07:51:44.617Z,81.59
2019-05-10T07:54:12.965Z,81.63
2019-05-10T07:56:45.556Z,80.99
2019-05-10T07:59:16.327Z,80.53
2019-05-10T08:01:41.981Z,80.27
2019-05-10T08:04:13.026Z,80.41
2019-05-10T08:06:47.653Z,80.19
2019-05-10T08:09:10.812Z,80.09
2019-05-10T08:11:39.293Z,80.00
2019-05-10T08:14:11.054Z,79.69
2019-05-10T08:16:38.739Z,79.50
2019-05-10T08:19:07.428Z,79.64
2019-05-10T08:21:35.653Z,80.33
2019-05-10T08:24:05.674Z,80.11
2019-05-10T08:26:33.916Z,80.32
2019-05-10T08:29:02.286Z,80.85
2019-05-10T08:31:33.935Z,81.27
2019-05-10T08:34:02.216Z,80.94
2019-05-10T08:36:32.154Z,80.45
2019-05-10T08:39:09.999Z,80.04
2019-05-10T08:41:32.597Z,79.85
2019-05-10T08:44:04.552Z,79.85
2019-05-10T08:46:40.169Z,79.86
2019-05-10T08:49:02.086Z,79.15
2019-05-10T08:51:32.255Z,78.49
2019-05-10T08:54:01.749Z,78.88
2019-05-10T08:56:33.089Z,76.75
2019-05-10T08:59:03.647Z,76.41
2019-05-10T09:01:38.449Z,75.12
2019-05-10T09:04:06.613Z,74.48
2019-05-10T09:06:32.792Z,75.22
2019-05-10T09:09:01.934Z,75.93
2019-05-10T09:11:32.803Z,73.81
2019-05-10T09:14:03.242Z,72.29
2019-05-10T09:16:39.304Z,72.18
2019-05-10T09:19:02.573Z,71.79
2019-05-10T09:21:32.202Z,70.70
2019-05-10T09:24:03.411Z,70.09
2019-05-10T09:26:32.205Z,68.63
2019-05-10T09:29:01.629Z,68.15
2019-05-10T09:31:32.648Z,68.85
2019-05-10T09:34:02.417Z,66.90
2019-05-10T09:36:35.471Z,68.04
2019-05-10T09:39:03.388Z,67.69
2019-05-10T09:41:33.825Z,66.79
2019-05-10T09:44:03.045Z,66.04
2019-05-10T09:46:32.404Z,64.30
2019-05-10T09:49:13.728Z,65.45
2019-05-10T09:51:33.170Z,66.08
2019-05-10T09:54:01.821Z,66.63
2019-05-10T09:56:32.963Z,66.57
2019-05-10T09:59:00.079Z,66.18
2019-05-10T10:01:28.331Z,65.25
2019-05-10T10:03:58.357Z,64.66
2019-05-10T10:06:29.555Z,62.24
2019-05-10T10:08:57.718Z,64.18
2019-05-10T10:11:27.795Z,63.63
2019-05-10T10:13:59.192Z,62.53
2019-05-10T10:16:28.192Z,62.33
2019-05-10T10:18:56.931Z,63.87
2019-05-10T10:21:35.024Z,62.42
2019-05-10T10:24:00.007Z,61.85
2019-05-10T10:26:26.807Z,62.00
2019-05-10T10:28:57.854Z,61.19
2019-05-10T10:31:30.350Z,60.82
2019-05-10T10:34:02.618Z,59.88
2019-05-10T10:36:27.413Z,60.72
2019-05-10T10:38:56.994Z,60.56
2019-05-10T10:41:31.199Z,61.70
2019-05-10T10:43:58.356Z,62.34
2019-05-10T10:46:28.080Z,63.18
2019-05-10T10:48:56.575Z,65.02
2019-05-10T10:51:26.548Z,66.08
2019-05-10T10:53:57.972Z,67.16
2019-05-10T10:56:27.697Z,69.65
2019-05-10T10:58:58.118Z,71.41
2019-05-10T11:01:38.028Z,71.94
2019-05-10T11:03:57.027Z,72.26
2019-05-10T11:06:25.810Z,71.73
2019-05-10T11:08:54.087Z,72.30
2019-05-10T11:11:22.234Z,71.68
2019-05-10T11:13:58.639Z,71.35
2019-05-10T11:16:21.199Z,71.59
2019-05-10T11:18:51.710Z,70.25
2019-05-10T11:21:23.294Z,68.96
2019-05-10T11:23:50.327Z,67.67
2019-05-10T11:26:18.501Z,67.03
2019-05-10T11:28:47.029Z,64.22
2019-05-10T11:31:15.885Z,63.19
2019-05-10T11:33:47.378Z,61.46
2019-05-10T11:36:14.138Z,61.14
2019-05-10T11:38:46.931Z,61.04
2019-05-10T11:41:20.709Z,59.78
2019-05-10T11:43:43.503Z,60.76
2019-05-10T11:46:12.453Z,60.11
2019-05-10T11:48:42.174Z,59.48
2019-05-10T11:51:15.999Z,61.30
2019-05-10T11:53:41.666Z,62.05
2019-05-10T11:56:14.122Z,61.03
2019-05-10T11:58:49.063Z,60.19
2019-05-10T12:01:17.334Z,61.01
2019-05-10T12:03:42.423Z,61.57
2019-05-10T12:06:12.121Z,62.13
2019-05-10T12:08:41.861Z,62.56
2019-05-10T12:11:25.036Z,62.32
2019-05-10T12:13:40.895Z,62.07
2019-05-10T12:16:12.361Z,62.61
2019-05-10T12:18:46.555Z,62.79
2019-05-10T12:21:11.306Z,62.65
2019-05-10T12:23:50.022Z,62.63
2019-05-10T12:28:40.925Z,63.03
2019-05-10T12:31:15.274Z,62.81
2019-05-10T12:33:42.904Z,61.47
2019-05-10T12:36:21.576Z,61.57
2019-05-10T12:38:40.493Z,61.23
2019-05-10T12:41:09.012Z,59.51
2019-05-10T12:43:37.286Z,59.20
2019-05-10T12:46:05.418Z,58.21
2019-05-10T12:48:35.957Z,57.38
2019-05-10T12:51:11.244Z,55.03
2019-05-10T12:53:36.813Z,54.93
2019-05-10T12:56:04.576Z,54.33
2019-05-10T12:58:32.854Z,54.46
2019-05-10T13:01:01.101Z,53.67
2019-05-10T13:03:31.802Z,52.91
2019-05-10T13:05:59.362Z,53.57
2019-05-10T13:08:27.597Z,53.96
2019-05-10T13:10:55.755Z,53.06
2019-05-10T13:13:29.490Z,53.40
2019-05-10T13:15:54.415Z,53.07
2019-05-10T13:18:34.375Z,53.21
2019-05-10T13:20:53.319Z,51.52
2019-05-10T13:23:21.771Z,50.58
2019-05-10T13:25:49.891Z,50.85
2019-05-10T13:28:18.060Z,51.45
2019-05-10T13:30:46.339Z,51.04
2019-05-10T13:33:27.918Z,52.58
2019-05-10T13:35:44.951Z,53.04
2019-05-10T13:38:13.376Z,52.82
2019-05-10T13:40:45.948Z,51.48
2019-05-10T13:43:17.313Z,50.17
2019-05-10T13:45:42.711Z,50.44
2019-05-10T13:48:11.766Z,50.25
2019-05-10T13:50:39.920Z,49.89
2019-05-10T13:53:19.853Z,46.96
2019-05-10T13:55:39.297Z,46.95
2019-05-10T13:58:07.525Z,47.49
2019-05-10T14:00:36.163Z,46.11
2019-05-10T14:03:04.977Z,46.47
2019-05-10T14:05:35.214Z,47.29
2019-05-10T14:08:03.328Z,46.80
2019-05-10T14:10:32.532Z,45.97
2019-05-10T14:13:02.633Z,46.44
2019-05-10T14:15:30.676Z,46.40
2019-05-10T14:17:59.508Z,48.84
2019-05-10T14:20:27.960Z,49.08
2019-05-10T14:22:58.693Z,49.83
2019-05-10T14:25:29.366Z,49.35
2019-05-10T14:27:57.402Z,50.31
2019-05-10T14:30:26.148Z,49.27
2019-05-10T14:32:54.263Z,49.05
2019-05-10T14:35:24.361Z,49.76
2019-05-10T14:37:52.778Z,48.38
2019-05-10T14:40:27.666Z,46.71
2019-05-10T14:42:51.133Z,45.92
2019-05-10T14:45:19.352Z,45.45
2019-05-10T14:47:50.418Z,46.57
2019-05-10T14:50:19.627Z,46.23
2019-05-10T14:52:48.425Z,45.52
2019-05-10T14:55:16.645Z,45.81
2019-05-10T14:57:44.822Z,46.10
2019-05-10T15:00:13.628Z,46.91
2019-05-10T15:02:41.936Z,47.19
2019-05-10T15:05:15.628Z,47.06
2019-05-10T15:07:41.452Z,46.98
2019-05-10T15:10:10.043Z,47.43
2019-05-10T15:12:38.232Z,47.52
2019-05-10T15:15:10.111Z,47.62
2019-05-10T15:17:38.582Z,47.59
2019-05-10T15:20:06.925Z,47.88
2019-05-10T15:22:35.344Z,46.50
2019-05-10T15:25:04.019Z,44.74
2019-05-10T15:27:32.208Z,44.00
2019-05-10T15:30:05.358Z,43.50
2019-05-10T15:32:30.632Z,43.45
2019-05-10T15:35:08.244Z,44.03
2019-05-10T15:37:29.918Z,42.57
2019-05-10T15:40:00.480Z,41.73
2019-05-10T15:42:30.538Z,41.70
2019-05-10T15:44:58.696Z,41.70
2019-05-10T15:47:27.188Z,41.63
2019-05-10T15:50:00.008Z,41.45
2019-05-10T15:52:25.863Z,42.61
2019-05-10T15:54:54.079Z,42.90
2019-05-10T15:57:22.392Z,42.81
2019-05-10T15:59:56.289Z,42.14
2019-05-10T16:02:21.201Z,43.28
2019-05-10T16:04:49.424Z,42.18
2019-05-10T16:07:17.802Z,42.94
2019-05-10T16:09:50.007Z,42.84
2019-05-10T16:12:16.370Z,43.05
2019-05-10T16:14:45.695Z,43.17
2019-05-10T16:17:17.520Z,43.30
2019-05-10T16:19:44.176Z,43.81
2019-05-10T16:22:12.384Z,43.73
2019-05-10T16:24:40.784Z,43.63
2019-05-10T16:27:09.484Z,44.43
2019-05-10T16:29:40.130Z,44.66
2019-05-10T16:32:07.632Z,45.02
2019-05-10T16:34:36.377Z,44.49
2019-05-10T16:37:04.498Z,44.45
2019-05-10T16:39:32.998Z,44.69
2019-05-10T16:42:01.233Z,44.60
2019-05-10T16:44:30.309Z,44.62
2019-05-10T16:46:58.841Z,44.49
2019-05-10T16:49:27.085Z,45.10
2019-05-10T16:51:55.270Z,46.56
2019-05-10T16:54:25.371Z,48.31
2019-05-10T16:56:59.393Z,48.82
2019-05-10T16:59:24.386Z,49.41
2019-05-10T17:02:03.130Z,49.21
2019-05-10T17:04:24.586Z,49.56
2019-05-10T17:06:54.903Z,50.35
2019-05-10T17:09:23.338Z,50.09
2019-05-10T17:11:51.539Z,50.52
2019-05-10T17:14:20.243Z,50.94
2019-05-10T17:16:50.121Z,50.68
2019-05-10T17:19:18.758Z,50.64
2019-05-10T17:21:47.409Z,50.78
2019-05-10T17:24:18.723Z,50.51
2019-05-10T17:26:46.368Z,50.76
2019-05-10T17:29:14.762Z,51.84
2019-05-10T17:31:45.592Z,52.27
2019-05-10T17:34:22.163Z,52.07
2019-05-10T17:36:43.797Z,52.33
2019-05-10T17:39:12.056Z,52.68
2019-05-10T17:41:40.578Z,53.40
2019-05-10T17:44:09.138Z,53.44
2019-05-10T17:46:37.430Z,53.78
2019-05-10T17:49:06.049Z,53.53
2019-05-10T17:51:34.243Z,53.74
2019-05-10T17:54:03.742Z,53.65
2019-05-10T17:56:32.823Z,53.93
2019-05-10T17:59:05.666Z,53.79
2019-05-10T18:01:33.641Z,54.45
2019-05-10T18:04:01.756Z,54.44
2019-05-10T18:06:30.298Z,54.17
2019-05-10T18:08:58.428Z,53.98
2019-05-10T18:11:26.926Z,54.16
2019-05-10T18:13:55.905Z,54.27
2019-05-10T18:16:24.493Z,54.40
2019-05-10T18:18:52.901Z,53.93
2019-05-10T18:21:23.982Z,53.84
2019-05-10T18:23:52.584Z,54.09
2019-05-10T18:26:22.738Z,53.92
2019-05-10T18:28:51.185Z,54.26
2019-05-10T18:31:19.646Z,54.06
2019-05-10T18:33:54.242Z,54.19
2019-05-10T18:36:19.154Z,54.15
2019-05-10T18:38:47.814Z,54.17
2019-05-10T18:41:16.270Z,54.28
2019-05-10T18:43:45.282Z,54.64
2019-05-10T18:46:13.582Z,54.52
2019-05-10T18:48:42.105Z,54.52
2019-05-10T18:51:10.698Z,54.57
2019-05-10T18:53:38.906Z,54.58
2019-05-10T18:56:07.090Z,54.77
2019-05-10T18:58:35.845Z,55.52
2019-05-10T19:01:04.091Z,55.02
2019-05-10T19:03:33.502Z,55.22
2019-05-10T19:06:10.757Z,55.46
2019-05-10T19:08:34.026Z,55.90
2019-05-10T19:11:03.260Z,56.02
2019-05-10T19:13:34.437Z,56.32
2019-05-10T19:16:02.717Z,56.63
2019-05-10T19:18:30.913Z,56.92
2019-05-10T19:20:59.056Z,56.93
2019-05-10T19:23:27.206Z,57.58
2019-05-10T19:25:55.693Z,57.31
2019-05-10T19:28:26.876Z,57.60
2019-05-10T19:30:58.753Z,58.07
2019-05-10T19:33:29.764Z,58.29
2019-05-10T19:35:55.534Z,58.42
2019-05-10T19:38:23.728Z,58.42
2019-05-10T19:40:51.910Z,58.57
2019-05-10T19:43:21.563Z,58.74
2019-05-10T19:45:51.055Z,59.77
2019-05-10T19:48:20.719Z,59.32
2019-05-10T19:50:49.585Z,58.85
2019-05-10T19:53:17.818Z,59.10
2019-05-10T19:55:45.993Z,59.35
2019-05-10T19:58:14.168Z,60.02
2019-05-10T20:00:42.327Z,60.22
2019-05-10T20:03:11.473Z,61.13
2019-05-10T20:05:40.041Z,60.74
2019-05-10T20:08:08.345Z,61.49
2019-05-10T20:10:36.473Z,61.94
2019-05-10T20:13:04.751Z,61.93
2019-05-10T20:15:32.892Z,61.92
2019-05-10T20:18:01.578Z,61.70
2019-05-10T20:20:29.802Z,60.61
2019-05-10T20:22:58.525Z,60.77
2019-05-10T20:25:26.758Z,60.88
2019-05-10T20:27:54.934Z,60.95
2019-05-10T20:30:23.227Z,61.01
2019-05-10T20:32:51.972Z,61.39
2019-05-10T20:35:20.777Z,61.73
2019-05-10T20:38:01.245Z,61.94
2019-05-10T20:40:19.380Z,61.48
2019-05-10T20:42:47.635Z,61.62
2019-05-10T20:45:16.082Z,61.16
2019-05-10T20:47:44.611Z,61.66
2019-05-10T20:50:13.068Z,62.04
2019-05-10T20:52:41.852Z,62.45
2019-05-10T20:55:10.188Z,63.22
2019-05-10T20:57:38.657Z,63.58
2019-05-10T21:00:07.522Z,63.93
2019-05-10T21:02:35.962Z,64.22
2019-05-10T21:05:04.292Z,63.33
2019-05-10T21:07:32.524Z,62.33
2019-05-10T21:10:00.790Z,62.46
2019-05-10T21:12:29.214Z,62.92
2019-05-10T21:14:57.461Z,63.01
2019-05-10T21:17:26.109Z,63.31
2019-05-10T21:19:54.305Z,63.49
2019-05-10T21:22:22.518Z,62.95
2019-05-10T21:24:50.735Z,64.16
2019-05-10T21:27:18.988Z,63.47
2019-05-10T21:29:47.116Z,63.05
2019-05-10T21:32:16.164Z,62.12
2019-05-10T21:34:44.293Z,64.04
2019-05-10T21:37:12.492Z,65.21
2019-05-10T21:39:40.618Z,64.63
2019-05-10T21:42:08.890Z,64.44
2019-05-10T21:44:37.075Z,64.28
2019-05-10T21:47:05.289Z,64.22
2019-05-10T21:49:33.887Z,64.12
2019-05-10T21:52:02.161Z,63.81
2019-05-10T21:54:30.290Z,63.34
2019-05-10T21:56:58.512Z,63.50
2019-05-10T21:59:26.913Z,64.30
2019-05-10T22:01:55.663Z,64.97
2019-05-10T22:04:24.684Z,65.67
2019-05-10T22:06:52.856Z,65.32
2019-05-10T22:09:21.104Z,64.84
2019-05-10T22:11:49.735Z,64.07
2019-05-10T22:14:17.979Z,64.15
2019-05-10T22:16:46.159Z,64.38
2019-05-10T22:19:14.272Z,64.51
2019-05-10T22:21:42.855Z,64.85
2019-05-10T22:24:11.579Z,64.96
2019-05-10T22:26:39.813Z,65.05
2019-05-10T22:29:08.545Z,64.67
2019-05-10T22:31:37.011Z,64.64
2019-05-10T22:34:05.927Z,64.66
2019-05-10T22:36:34.171Z,65.05
2019-05-10T22:39:07.518Z,64.69
2019-05-10T22:41:35.132Z,65.34
2019-05-10T22:44:03.412Z,65.87
2019-05-10T22:46:32.247Z,66.88
2019-05-10T22:49:00.764Z,67.03
2019-05-10T22:51:29.006Z,67.32
2019-05-10T22:54:00.115Z,67.12
2019-05-10T22:56:28.187Z,67.08
2019-05-10T22:58:56.757Z,67.58
2019-05-10T23:01:24.917Z,67.57
2019-05-10T23:03:54.600Z,68.30
2019-05-10T23:06:23.087Z,68.35
2019-05-10T23:08:51.252Z,68.78
2019-05-10T23:11:19.908Z,68.38
2019-05-10T23:13:48.067Z,67.81
2019-05-10T23:16:16.841Z,67.84
2019-05-10T23:18:45.577Z,67.56
2019-05-10T23:21:13.778Z,67.80
2019-05-10T23:23:42.042Z,67.03
2019-05-10T23:26:10.262Z,68.02
2019-05-10T23:28:38.562Z,68.38
2019-05-10T23:31:06.807Z,68.44
2019-05-10T23:33:34.982Z,68.00
2019-05-10T23:36:03.179Z,68.15
2019-05-10T23:38:31.461Z,69.02
2019-05-10T23:40:59.848Z,68.39
2019-05-10T23:43:28.345Z,68.26
2019-05-10T23:45:56.729Z,67.64
2019-05-10T23:48:25.059Z,67.77
2019-05-10T23:50:53.302Z,67.07
2019-05-10T23:53:21.554Z,67.05
2019-05-10T23:55:50.084Z,66.88
2019-05-10T23:58:18.310Z,67.25
